Time;durP1;ratioP1;P1;durP2;ratioP2;P2;SDS_P1;SDS_P2;PMS_P1;PMS_P2;Temp;Humidity;BMP_temperature;BMP_pressure;BME280_temperature;BME280_humidity;BME280_pressure;Samples;Min_cycle;Max_cycle;Signal;HPM_P1;HPM_P2
2023/02/22 00:01:17;;;;;;;17.67;9.43;;;2.90;99.90;;;2.65;100.00;97584.72;5042978;28;20412;-68
2023/02/22 00:03:52;;;;;;;19.92;10.30;;;3.00;99.90;;;2.67;100.00;97583.00;5043358;28;20098;-68
2023/02/22 00:06:23;;;;;;;15.70;9.55;;;2.90;99.90;;;2.71;100.00;97574.38;5040434;28;20053;-67
2023/02/22 00:08:54;;;;;;;16.73;8.95;;;2.90;99.90;;;2.63;100.00;97566.78;5041375;28;20044;-68
2023/02/22 00:11:22;;;;;;;16.38;9.18;;;2.90;99.90;;;2.57;100.00;97573.69;5039019;28;20049;-67
2023/02/22 00:13:49;;;;;;;21.60;10.95;;;2.90;99.90;;;2.37;100.00;97566.22;5029413;28;20041;-68
2023/02/22 00:16:20;;;;;;;16.25;9.10;;;2.80;99.90;;;2.28;100.00;97582.53;5060845;28;20107;-68
2023/02/22 00:18:48;;;;;;;14.30;9.00;;;2.70;99.90;;;2.18;100.00;97578.38;5042991;28;20516;-68
2023/02/22 00:21:17;;;;;;;16.02;8.90;;;2.70;99.90;;;2.16;100.00;97577.53;5043330;28;20123;-68
2023/02/22 00:23:46;;;;;;;14.82;8.57;;;2.60;99.90;;;2.19;100.00;97580.91;5034742;28;20076;-68
2023/02/22 00:26:20;;;;;;;17.42;9.25;;;2.60;99.90;;;2.24;100.00;97581.72;5042146;28;20053;-69
2023/02/22 00:28:52;;;;;;;15.90;9.52;;;2.60;99.90;;;2.11;100.00;97582.69;5070464;28;20072;-68
2023/02/22 00:31:20;;;;;;;15.88;8.43;;;2.60;99.90;;;2.16;100.00;97580.94;5044115;28;20049;-68
2023/02/22 00:33:48;;;;;;;14.35;8.68;;;2.60;99.90;;;2.15;100.00;97580.97;5040876;28;20120;-69
2023/02/22 00:36:15;;;;;;;15.10;8.77;;;2.60;99.90;;;2.18;100.00;97568.97;5040685;28;20064;-67
2023/02/22 00:38:42;;;;;;;15.88;9.02;;;2.60;99.90;;;2.30;100.00;97576.53;5041891;28;20045;-67
2023/02/22 00:41:10;;;;;;;13.63;7.97;;;2.60;99.90;;;2.25;100.00;97574.88;5042069;28;20117;-67
2023/02/22 00:43:37;;;;;;;16.85;8.80;;;2.60;99.90;;;2.18;100.00;97565.56;5044344;28;20059;-67
2023/02/22 00:46:04;;;;;;;14.93;8.15;;;2.60;99.90;;;2.11;100.00;97561.38;5056361;28;20064;-68
2023/02/22 00:48:32;;;;;;;15.20;9.43;;;2.60;99.90;;;2.17;100.00;97569.00;5041189;28;20508;-68
2023/02/22 00:50:59;;;;;;;14.02;8.63;;;2.60;99.90;;;2.19;100.00;97568.13;5037862;28;20037;-68
2023/02/22 00:53:26;;;;;;;17.25;9.82;;;2.60;99.90;;;2.21;100.00;97562.97;5039089;28;20128;-67
2023/02/22 00:55:53;;;;;;;15.88;8.88;;;2.60;99.90;;;2.21;100.00;97566.41;5023665;28;20166;-67
2023/02/22 00:58:21;;;;;;;16.83;9.95;;;2.60;99.90;;;2.25;100.00;97559.50;5040684;28;20069;-68
2023/02/22 01:00:49;;;;;;;17.77;10.40;;;2.60;99.90;;;2.19;100.00;97554.44;5040513;28;20045;-68
2023/02/22 01:03:19;;;;;;;21.00;11.05;;;2.60;99.90;;;2.16;100.00;97562.16;5024219;28;20048;-68
2023/02/22 01:05:47;;;;;;;21.08;10.40;;;2.60;99.90;;;2.25;100.00;97556.94;5041174;28;20583;-68
2023/02/22 01:08:16;;;;;;;18.55;10.63;;;2.60;99.90;;;2.24;100.00;97547.59;5042477;28;20061;-67
2023/02/22 01:10:43;;;;;;;19.27;11.23;;;2.60;99.90;;;2.20;100.00;97549.31;5040544;28;20483;-68
2023/02/22 01:13:12;;;;;;;21.65;11.02;;;2.60;99.90;;;2.12;100.00;97545.13;5024929;28;20041;-67
2023/02/22 01:15:41;;;;;;;20.95;10.45;;;2.60;99.90;;;1.96;100.00;97546.97;5042428;28;21042;-67
2023/02/22 01:18:11;;;;;;;21.20;10.90;;;2.50;99.90;;;1.91;100.00;97551.28;5040259;28;20049;-67
2023/02/22 01:20:38;;;;;;;21.88;11.73;;;2.50;99.90;;;1.93;100.00;97547.00;5042038;28;20110;-67
2023/02/22 01:23:06;;;;;;;17.55;10.38;;;2.50;99.90;;;1.83;100.00;97554.78;5059319;28;20068;-67
2023/02/22 01:25:35;;;;;;;19.92;11.13;;;2.40;99.90;;;1.91;100.00;97556.41;5078792;28;20471;-67
2023/02/22 01:28:04;;;;;;;21.15;10.95;;;2.40;99.90;;;1.92;100.00;97556.41;5047063;28;20076;-67
2023/02/22 01:30:34;;;;;;;21.63;10.23;;;2.40;99.90;;;2.06;100.00;97554.56;5057073;28;20053;-68
2023/02/22 01:33:05;;;;;;;19.40;10.65;;;2.30;99.90;;;1.99;100.00;97552.94;5072814;28;20049;-67
2023/02/22 01:35:39;;;;;;;22.55;10.77;;;2.40;99.90;;;2.05;100.00;97552.88;5046654;28;20053;-67
2023/02/22 01:38:08;;;;;;;20.63;10.95;;;2.40;99.90;;;2.14;100.00;97549.34;5045233;28;20330;-68
2023/02/22 01:40:41;;;;;;;21.90;11.98;;;2.40;99.90;;;2.15;100.00;97551.06;5044948;28;20478;-67
2023/02/22 01:43:29;;;;;;;17.70;9.75;;;2.40;99.90;;;2.00;100.00;97548.66;5043678;28;20049;-67
2023/02/22 01:46:03;;;;;;;24.85;11.43;;;2.40;99.90;;;1.91;100.00;97544.44;5030411;28;20053;-67
2023/02/22 01:49:04;;;;;;;16.63;9.68;;;2.40;99.90;;;1.96;100.00;97542.72;5046551;28;20127;-67
2023/02/22 01:51:40;;;;;;;22.13;10.43;;;2.30;99.90;;;1.80;100.00;97544.56;5054891;28;20048;-67
2023/02/22 01:54:17;;;;;;;19.15;9.75;;;2.30;99.90;;;1.82;100.00;97537.69;5071133;28;20139;-67
2023/02/22 01:57:05;;;;;;;19.02;10.25;;;2.20;99.90;;;1.87;100.00;97537.66;5039728;28;20114;-68
2023/02/22 01:59:37;;;;;;;16.42;9.45;;;2.30;99.90;;;1.79;100.00;97524.94;5042984;28;20049;-67
2023/02/22 02:02:05;;;;;;;19.55;10.52;;;2.30;99.90;;;1.88;100.00;97519.75;5039962;28;20048;-68
2023/02/22 02:04:33;;;;;;;19.92;10.35;;;2.30;99.90;;;1.85;100.00;97524.06;5039465;28;20155;-68
2023/02/22 02:07:04;;;;;;;18.42;10.20;;;2.30;99.90;;;1.80;100.00;97516.41;5071765;28;20053;-68
2023/02/22 02:09:46;;;;;;;17.65;10.02;;;2.20;99.90;;;1.78;100.00;97520.69;5039085;28;20063;-67
2023/02/22 02:12:15;;;;;;;16.15;10.15;;;2.20;99.90;;;1.77;100.00;97518.13;5040268;28;20045;-67
2023/02/22 02:14:42;;;;;;;18.25;9.52;;;2.20;99.90;;;1.74;100.00;97513.91;5073328;28;20060;-67
2023/02/22 02:17:19;;;;;;;17.13;8.90;;;2.20;99.90;;;1.68;100.00;97511.38;5040629;28;20052;-67
2023/02/22 02:20:26;;;;;;;15.15;8.82;;;2.20;99.90;;;1.76;100.00;97512.19;5036660;28;20044;-68
2023/02/22 02:23:33;;;;;;;16.83;10.35;;;2.10;99.90;;;1.68;100.00;97504.53;5042429;28;20052;-67
2023/02/22 02:26:50;;;;;;;15.35;8.15;;;2.10;99.90;;;1.59;100.00;97501.22;5046186;28;20094;-67
2023/02/22 02:29:25;;;;;;;23.40;12.32;;;2.10;99.90;;;1.20;100.00;97503.22;5045827;28;20136;-67
2023/02/22 02:32:14;;;;;;;17.35;9.45;;;2.00;99.90;;;1.31;100.00;97501.44;5046703;28;20049;-68
2023/02/22 02:35:02;;;;;;;19.52;9.40;;;2.00;99.90;;;1.54;100.00;97500.44;5072835;28;20136;-67
2023/02/22 02:38:16;;;;;;;15.40;8.65;;;2.00;99.90;;;1.61;100.00;97504.63;5043276;28;20076;-67
2023/02/22 02:41:00;;;;;;;17.35;9.27;;;2.00;99.90;;;1.55;100.00;97505.53;5030514;28;20459;-67
2023/02/22 02:43:32;;;;;;;23.20;10.68;;;2.00;99.90;;;1.48;100.00;97498.75;5043830;28;20049;-67
2023/02/22 02:46:31;;;;;;;19.15;10.27;;;2.00;99.90;;;1.48;100.00;97503.03;5040675;28;20049;-67
2023/02/22 02:49:04;;;;;;;18.30;9.65;;;2.00;99.90;;;1.43;100.00;97505.63;5070147;28;20063;-67
2023/02/22 02:51:38;;;;;;;17.33;10.13;;;1.90;99.90;;;1.44;100.00;97497.94;5039456;28;20724;-67
2023/02/22 02:54:06;;;;;;;13.75;8.38;;;1.90;99.90;;;1.39;100.00;97498.81;5045440;28;20057;-67
2023/02/22 02:56:33;;;;;;;16.75;8.95;;;1.90;99.90;;;1.40;100.00;97498.81;5042909;28;20431;-68
2023/02/22 02:59:00;;;;;;;18.23;9.35;;;1.90;99.90;;;1.28;100.00;97492.94;5035631;28;20045;-67
2023/02/22 03:02:08;;;;;;;15.18;9.65;;;1.80;99.90;;;1.32;100.00;97498.00;5040735;28;20053;-67
2023/02/22 03:04:44;;;;;;;18.02;9.30;;;1.80;99.90;;;1.20;100.00;97498.94;5038764;28;20044;-67
2023/02/22 03:07:27;;;;;;;18.45;10.15;;;1.80;99.90;;;1.35;100.00;97487.78;5070712;28;20522;-67
2023/02/22 03:10:12;;;;;;;22.08;11.35;;;1.70;99.90;;;1.23;100.00;97496.38;5036788;28;20496;-68
2023/02/22 03:12:48;;;;;;;17.77;10.20;;;1.70;99.90;;;1.12;100.00;97489.63;5040234;28;20077;-67
2023/02/22 03:15:45;;;;;;;17.73;10.05;;;1.70;99.90;;;1.15;100.00;97484.50;5039100;28;20500;-68
2023/02/22 03:18:21;;;;;;;21.40;11.23;;;1.60;99.90;;;1.11;100.00;97493.91;5039986;28;20085;-67
2023/02/22 03:21:08;;;;;;;19.40;9.93;;;1.60;99.90;;;1.20;100.00;97493.00;5043691;28;20505;-68
2023/02/22 03:24:08;;;;;;;13.70;8.55;;;1.70;99.90;;;1.11;100.00;97487.94;5038299;28;20154;-68
2023/02/22 03:26:46;;;;;;;17.35;9.32;;;1.70;99.90;;;1.03;100.00;97485.44;5042240;28;20063;-67
2023/02/22 03:29:17;;;;;;;13.10;7.32;;;1.60;99.90;;;1.13;100.00;97478.56;5056495;28;20060;-66
2023/02/22 03:31:52;;;;;;;18.15;8.20;;;1.60;99.90;;;1.15;100.00;97487.91;5037667;28;20653;-66
2023/02/22 03:34:27;;;;;;;14.02;7.75;;;1.60;99.90;;;1.31;100.00;97488.66;5036136;28;20466;-67
2023/02/22 03:37:05;;;;;;;15.88;8.85;;;1.70;99.90;;;1.30;100.00;97486.09;5057196;28;20059;-67
2023/02/22 03:39:35;;;;;;;12.88;7.70;;;1.70;99.90;;;1.42;100.00;97486.03;5071059;28;20048;-67
2023/02/22 03:42:15;;;;;;;16.58;8.45;;;1.80;99.90;;;1.13;100.00;97481.97;5040104;28;20129;-67
2023/02/22 03:44:45;;;;;;;12.57;6.47;;;1.70;99.90;;;1.06;100.00;97484.56;5041142;28;20037;-66
2023/02/22 03:47:22;;;;;;;14.98;7.22;;;1.60;99.90;;;0.88;100.00;97473.59;5041599;28;20115;-67
2023/02/22 03:50:08;;;;;;;14.48;8.07;;;1.50;99.90;;;0.88;100.00;97478.72;5026583;28;20045;-67
2023/02/22 03:52:35;;;;;;;13.52;6.85;;;1.40;99.90;;;0.98;100.00;97485.47;5071477;28;20072;-67
2023/02/22 03:55:09;;;;;;;16.00;6.93;;;1.50;99.90;;;1.20;100.00;97481.06;5039628;28;20073;-67
2023/02/22 03:57:40;;;;;;;10.32;5.70;;;1.60;99.90;;;1.31;100.00;97488.66;5040935;28;20127;-67
2023/02/22 04:00:13;;;;;;;10.15;5.95;;;1.60;99.90;;;1.33;100.00;97488.66;5036043;28;20057;-67
2023/02/22 04:02:40;;;;;;;7.80;4.07;;;1.70;99.90;;;1.31;100.00;97495.47;5040371;28;20045;-67
2023/02/22 04:05:08;;;;;;;10.50;4.68;;;1.70;99.90;;;1.32;100.00;97479.28;5039998;28;20060;-67
2023/02/22 04:07:35;;;;;;;8.55;4.32;;;1.70;99.90;;;1.20;100.00;97487.88;5039070;28;20045;-67
2023/02/22 04:10:03;;;;;;;11.90;5.75;;;1.70;99.90;;;0.59;100.00;97482.28;5038215;28;20052;-67
2023/02/22 04:12:30;;;;;;;13.13;6.68;;;1.60;99.90;;;0.71;100.00;97476.25;5041024;28;20063;-67
2023/02/22 04:14:57;;;;;;;11.10;6.55;;;1.50;99.90;;;0.59;100.00;97482.28;5040869;28;20041;-67
2023/02/22 04:17:24;;;;;;;13.40;6.78;;;1.50;99.90;;;0.50;100.00;97486.56;5040353;28;20045;-67
2023/02/22 04:19:51;;;;;;;10.75;6.68;;;1.50;99.90;;;0.71;100.00;97488.16;5037500;28;20530;-67
2023/02/22 04:22:18;;;;;;;18.30;9.40;;;1.40;99.90;;;0.65;100.00;97481.38;5038402;28;20049;-67
2023/02/22 04:24:45;;;;;;;15.90;8.90;;;1.40;99.90;;;0.55;100.00;97489.97;5055495;28;20055;-67
2023/02/22 04:27:12;;;;;;;13.38;8.35;;;1.40;99.90;;;0.65;100.00;97480.53;5042263;28;20060;-67
2023/02/22 04:29:39;;;;;;;13.68;7.53;;;1.40;99.90;;;0.92;100.00;97479.56;5040572;28;20048;-67
2023/02/22 04:32:06;;;;;;;14.10;7.80;;;1.40;99.90;;;1.03;100.00;97470.94;5040543;28;20514;-67
2023/02/22 04:34:33;;;;;;;15.02;8.05;;;1.40;99.90;;;0.90;100.00;97466.78;5040630;28;20381;-67
2023/02/22 04:37:00;;;;;;;14.95;8.73;;;1.40;99.90;;;0.76;100.00;97468.56;5042323;28;20045;-67
2023/02/22 04:39:28;;;;;;;16.75;8.90;;;1.40;99.90;;;0.61;100.00;97475.44;5038424;28;20116;-67
2023/02/22 04:41:55;;;;;;;14.90;8.65;;;1.40;99.90;;;0.65;100.00;97480.53;5042114;28;20045;-67
2023/02/22 04:44:22;;;;;;;18.30;9.32;;;1.40;99.90;;;0.69;100.00;97475.41;5039021;28;20095;-66
2023/02/22 04:46:49;;;;;;;17.23;9.52;;;1.30;99.90;;;0.88;100.00;97475.31;5041158;28;20043;-67
2023/02/22 04:49:16;;;;;;;25.30;11.50;;;1.30;99.90;;;1.02;100.00;97473.50;5037680;28;20075;-67
2023/02/22 04:51:43;;;;;;;38.28;20.73;;;1.40;99.90;;;0.82;100.00;97471.06;5042621;28;20049;-67
2023/02/22 04:54:11;;;;;;;26.80;15.65;;;1.40;99.90;;;0.55;100.00;97477.19;5037895;28;20888;-67
2023/02/22 04:56:38;;;;;;;25.08;14.52;;;1.30;99.90;;;0.63;100.00;97485.66;5040211;28;20055;-67
2023/02/22 04:59:05;;;;;;;30.40;16.25;;;1.20;99.90;;;0.74;100.00;97495.81;5043202;28;21980;-67
2023/02/22 05:01:34;;;;;;;26.80;15.23;;;1.20;99.90;;;0.86;100.00;97489.78;5044399;28;20071;-66
2023/02/22 05:04:03;;;;;;;30.65;17.65;;;1.30;99.90;;;0.90;100.00;97487.22;5075105;28;20080;-67
2023/02/22 05:06:30;;;;;;;42.58;26.23;;;1.30;99.90;;;0.74;100.00;97480.50;5045699;28;20061;-66
2023/02/22 05:08:57;;;;;;;41.50;24.80;;;1.30;99.90;;;0.85;100.00;97486.41;5045198;28;20044;-67
2023/02/22 05:11:24;;;;;;;33.78;20.70;;;1.40;99.90;;;0.67;100.00;97481.38;5045716;28;20045;-67
2023/02/22 05:13:52;;;;;;;28.75;17.23;;;1.40;99.90;;;0.46;100.00;97480.63;5043889;28;20045;-67
2023/02/22 05:16:18;;;;;;;20.40;12.45;;;1.30;99.90;;;0.41;100.00;97484.88;5045149;28;20049;-66
2023/02/22 05:18:46;;;;;;;18.77;10.98;;;1.30;99.90;;;0.20;100.00;97486.66;5046904;28;20110;-66
2023/02/22 05:21:12;;;;;;;17.10;9.65;;;1.20;99.90;;;0.11;100.00;97480.72;5044926;28;20106;-67
2023/02/22 05:23:40;;;;;;;15.10;8.15;;;1.20;99.90;;;-0.03;100.00;97491.81;5044008;28;20053;-67
2023/02/22 05:26:09;;;;;;;17.50;8.10;;;1.20;99.90;;;-0.10;100.00;97497.78;5041567;28;20106;-66
2023/02/22 05:28:37;;;;;;;13.63;6.85;;;1.20;99.90;;;0.22;100.00;97493.47;5045803;28;20049;-67
2023/02/22 05:31:06;;;;;;;13.07;7.25;;;1.00;99.90;;;0.38;100.00;97492.56;5027632;28;20423;-67
2023/02/22 05:33:33;;;;;;;11.98;6.75;;;1.10;99.90;;;0.43;100.00;97490.00;5043480;28;20132;-67
2023/02/22 05:36:00;;;;;;;14.77;7.68;;;1.00;99.90;;;0.26;100.00;97490.06;5039052;28;20049;-67
2023/02/22 05:38:27;;;;;;;13.35;8.77;;;1.00;99.90;;;0.27;100.00;97491.75;5074045;28;20049;-66
2023/02/22 05:40:55;;;;;;;12.50;7.45;;;1.00;99.90;;;0.37;100.00;97489.16;5043903;28;20071;-66
2023/02/22 05:43:22;;;;;;;15.20;8.60;;;1.00;99.90;;;0.33;100.00;97494.28;5045338;28;20507;-67
2023/02/22 05:45:49;;;;;;;16.33;8.70;;;0.90;99.90;;;0.45;100.00;97489.13;5040678;28;20559;-67
2023/02/22 05:48:16;;;;;;;13.60;7.68;;;0.90;99.90;;;0.56;100.00;97483.97;5075175;28;20503;-67
2023/02/22 05:50:43;;;;;;;13.57;7.15;;;1.00;99.90;;;0.65;100.00;97486.50;5044088;28;20052;-66
2023/02/22 05:53:10;;;;;;;12.55;6.93;;;1.10;99.90;;;0.76;100.00;97473.69;5043251;28;20441;-66
2023/02/22 05:55:37;;;;;;;11.57;6.38;;;1.20;99.90;;;0.73;100.00;97473.69;5041576;28;20049;-66
2023/02/22 05:58:06;;;;;;;14.65;8.05;;;1.20;99.90;;;0.62;100.00;97476.31;5044664;28;20053;-66
2023/02/22 06:00:34;;;;;;;18.17;9.57;;;1.20;99.90;;;0.36;100.00;97468.75;5043241;28;20053;-67
2023/02/22 06:03:07;;;;;;;19.67;11.50;;;1.20;99.90;;;0.43;100.00;97469.56;5042006;28;20582;-67
2023/02/22 06:05:35;;;;;;;20.50;11.90;;;1.10;99.90;;;0.14;100.00;97473.09;5025997;28;20482;-67
2023/02/22 06:08:04;;;;;;;20.50;11.82;;;1.10;99.90;;;0.07;100.00;97469.69;5043487;28;20055;-67
2023/02/22 06:10:32;;;;;;;21.92;10.10;;;1.10;99.90;;;0.25;100.00;97473.91;5047376;28;20192;-66
2023/02/22 06:13:03;;;;;;;18.52;9.30;;;1.10;99.90;;;0.32;100.00;97470.47;5045590;28;20521;-66
2023/02/22 06:15:31;;;;;;;19.88;10.90;;;1.00;99.90;;;0.30;100.00;97471.34;5043095;28;20130;-66
2023/02/22 06:17:59;;;;;;;17.00;10.55;;;1.00;99.90;;;0.28;100.00;97475.59;5044691;28;20152;-66
2023/02/22 06:20:28;;;;;;;20.15;10.85;;;1.00;99.90;;;0.08;100.00;97468.84;5046980;28;20080;-66
2023/02/22 06:22:57;;;;;;;19.83;10.70;;;1.00;99.90;;;-0.08;100.00;97477.38;5038747;28;20049;-66
2023/02/22 06:25:31;;;;;;;15.45;9.68;;;1.00;99.90;;;-0.13;100.00;97468.91;5044633;28;20140;-66
2023/02/22 06:27:59;;;;;;;;;;;0.90;99.90;;;-0.18;100.00;97470.59;5047174;28;20045;-66
2023/02/22 06:30:28;;;;;;;16.48;10.20;;;0.90;99.90;;;-0.25;100.00;97473.16;5047046;28;19920;-66
2023/02/22 06:32:55;;;;;;;20.58;10.57;;;0.90;99.90;;;-0.32;100.00;97478.25;5043863;28;20107;-66
2023/02/22 06:35:22;;;;;;;15.82;9.15;;;0.90;99.90;;;-0.28;100.00;97475.69;5043672;28;20538;-66
2023/02/22 06:37:49;;;;;;;15.23;9.52;;;0.80;99.90;;;-0.39;100.00;97476.56;5043327;28;20154;-66
2023/02/22 06:40:17;;;;;;;15.95;9.43;;;0.80;99.90;;;-0.42;100.00;97482.53;5042023;28;20059;-65
2023/02/22 06:42:47;;;;;;;17.52;10.18;;;0.80;99.90;;;-0.47;100.00;97481.69;5043471;28;20045;-66
2023/02/22 06:45:17;;;;;;;19.90;11.27;;;0.80;99.90;;;-0.38;100.00;97483.38;5045179;28;20058;-66
2023/02/22 06:47:44;;;;;;;18.98;10.93;;;0.80;99.90;;;-0.35;100.00;97481.66;5046247;28;20424;-66
2023/02/22 06:50:30;;;;;;;21.58;12.35;;;0.80;99.90;;;-0.29;100.00;97489.31;5047221;28;20048;-66
2023/02/22 06:52:57;;;;;;;22.23;12.95;;;0.80;99.90;;;-0.34;100.00;97482.50;5044677;28;20041;-66
2023/02/22 06:55:29;;;;;;;24.15;12.27;;;0.80;99.90;;;-0.28;100.00;97487.63;5073076;28;20132;-66
2023/02/22 06:57:56;;;;;;;24.00;11.73;;;0.80;99.90;;;-0.26;100.00;97488.47;5047494;28;20065;-66
2023/02/22 07:00:26;;;;;;;18.92;10.50;;;0.80;99.90;;;-0.28;100.00;97497.81;5045479;28;20390;-66
2023/02/22 07:02:53;;;;;;;16.48;9.60;;;0.90;99.90;;;-0.21;100.00;97494.41;5042949;28;20426;-66
2023/02/22 07:05:23;;;;;;;20.45;11.68;;;0.90;99.90;;;-0.17;100.00;97496.09;5041766;28;20405;-66
2023/02/22 07:07:53;;;;;;;17.88;11.40;;;1.00;99.90;;;-0.09;100.00;97501.19;5047167;28;20049;-66
2023/02/22 07:10:28;;;;;;;24.17;13.05;;;1.00;99.90;;;-0.04;100.00;97510.53;5046685;28;20590;-67
2023/02/22 07:12:55;;;;;;;21.45;12.15;;;1.10;99.90;;;0.06;100.00;97506.25;5028576;28;20136;-66
2023/02/22 07:15:24;;;;;;;17.40;10.82;;;1.20;99.90;;;0.10;100.00;97505.41;5043872;28;20052;-67
2023/02/22 07:17:51;;;;;;;35.53;21.27;;;1.20;99.90;;;0.09;100.00;97508.84;5047013;28;20534;-66
2023/02/22 07:20:20;;;;;;;35.80;24.83;;;1.30;99.90;;;0.08;100.00;97507.13;5042664;28;20076;-66
2023/02/22 07:22:48;;;;;;;29.63;18.00;;;1.30;99.90;;;0.18;100.00;97502.84;5045371;28;20132;-66
2023/02/22 07:25:16;;;;;;;41.13;27.52;;;1.40;99.90;;;0.30;100.00;97507.91;5046643;28;20053;-66
2023/02/22 07:27:43;;;;;;;23.90;14.48;;;1.50;99.90;;;0.41;100.00;97505.31;5057591;28;20136;-66
2023/02/22 07:30:24;;;;;;;29.15;19.13;;;1.50;99.90;;;0.44;100.00;97502.75;5043923;28;20149;-66
2023/02/22 07:32:53;;;;;;;20.27;11.43;;;1.50;99.90;;;0.70;100.00;97506.91;5044824;28;20144;-67
2023/02/22 07:35:30;;;;;;;171.00;78.18;;;1.60;99.90;;;0.62;100.00;97500.13;5037572;28;20107;-66
2023/02/22 07:37:58;;;;;;;118.93;70.55;;;1.70;99.90;;;0.62;100.00;97491.63;5042184;28;20141;-67
2023/02/22 07:40:26;;;;;;;174.10;100.10;;;1.80;99.90;;;0.78;100.00;97502.63;5043287;28;20048;-66
2023/02/22 07:42:58;;;;;;;84.18;44.30;;;;;;;0.77;100.00;97503.47;5043870;28;20055;-66
2023/02/22 07:45:31;;;;;;;85.60;46.53;;;1.90;99.90;;;0.91;100.00;97500.84;5038808;28;20053;-66
2023/02/22 07:48:03;;;;;;;98.05;54.42;;;2.00;99.90;;;1.18;100.00;97499.81;5044059;28;20045;-66
2023/02/22 07:50:32;;;;;;;106.65;65.18;;;2.20;99.90;;;1.32;100.00;97492.91;5041446;28;20102;-66
2023/02/22 07:53:06;;;;;;;186.30;111.03;;;2.30;99.90;;;1.62;100.00;97485.84;5045630;28;20041;-66
2023/02/22 07:55:34;;;;;;;115.80;69.00;;;2.50;99.90;;;1.95;100.00;97492.38;5043490;28;20049;-66
2023/02/22 07:58:04;;;;;;;37.67;23.88;;;2.70;99.90;;;2.38;100.00;97485.97;5044819;28;20041;-66
2023/02/22 08:00:36;;;;;;;15.23;9.50;;;2.90;99.90;;;3.04;100.00;97483.41;5040856;28;20045;-66
2023/02/22 08:03:07;;;;;;;23.25;12.52;;;3.20;99.90;;;3.43;100.00;97477.69;5059151;28;20045;-67
2023/02/22 08:05:38;;;;;;;20.87;11.13;;;3.70;99.90;;;3.86;100.00;97480.41;5038828;28;20060;-66
2023/02/22 08:08:07;;;;;;;20.08;10.07;;;4.10;99.90;;;4.33;100.00;97473.56;5041315;28;20386;-66
2023/02/22 08:10:35;;;;;;;13.35;8.02;;;4.50;99.90;;;4.56;100.00;97462.81;5042582;28;20145;-67
2023/02/22 08:13:03;;;;;;;15.73;8.48;;;4.80;99.90;;;4.70;100.00;97456.50;5042563;28;20049;-66
2023/02/22 08:15:35;;;;;;;13.93;8.70;;;5.10;99.90;;;4.79;100.00;97444.31;5043098;28;20464;-67
2023/02/22 08:18:07;;;;;;;15.27;7.60;;;5.20;99.90;;;4.85;100.00;97434.78;5028815;28;20079;-66
2023/02/22 08:20:36;;;;;;;11.65;7.18;;;5.30;99.90;;;4.99;100.00;97425.84;5044109;28;20052;-67
2023/02/22 08:23:06;;;;;;;12.70;8.88;;;5.40;99.90;;;4.99;100.00;97425.00;5042637;28;20407;-67
2023/02/22 08:25:34;;;;;;;19.95;8.68;;;5.50;99.90;;;4.93;100.00;97422.59;5042256;28;20140;-66
2023/02/22 08:28:10;;;;;;;17.02;10.18;;;5.70;99.90;;;5.13;100.00;97414.41;5042774;28;20190;-67
2023/02/22 08:30:38;;;;;;;12.70;8.10;;;5.80;99.90;;;5.32;100.00;97415.69;5039792;28;20045;-67
2023/02/22 08:33:06;;;;;;;13.95;7.88;;;5.90;99.90;;;5.51;100.00;97400.59;5043222;28;20111;-66
2023/02/22 08:35:33;;;;;;;13.07;7.45;;;6.00;99.90;;;5.72;100.00;97406.09;5046027;28;20055;-67
2023/02/22 08:38:04;;;;;;;12.13;8.13;;;6.10;99.90;;;5.92;100.00;97398.69;5045623;28;20119;-67
2023/02/22 08:40:35;;;;;;;13.02;7.95;;;6.30;99.90;;;5.93;100.00;97396.94;5043109;28;20551;-66
2023/02/22 08:43:03;;;;;;;14.32;9.88;;;6.50;99.90;;;6.15;100.00;97384.38;5056061;28;20055;-67
2023/02/22 08:45:30;;;;;;;21.25;15.10;;;6.70;99.90;;;5.84;100.00;97386.03;5035453;28;20135;-67
2023/02/22 08:47:58;;;;;;;20.73;11.73;;;6.80;99.90;;;5.97;100.00;97383.13;5042417;28;20041;-67
2023/02/22 08:50:29;;;;;;;21.85;14.32;;;6.80;99.90;;;5.86;100.00;97384.25;5043660;28;20508;-67
2023/02/22 08:52:59;;;;;;;33.75;24.70;;;6.90;99.90;;;5.59;100.00;97383.25;5043844;28;20144;-67
2023/02/22 08:55:33;;;;;;;36.92;27.15;;;7.00;99.90;;;5.64;100.00;97380.56;5042558;28;20040;-67
2023/02/22 08:58:03;;;;;;;36.72;26.42;;;7.00;99.90;;;5.80;100.00;97371.53;5042711;28;20041;-67
2023/02/22 09:00:32;;;;;;;33.95;22.65;;;7.00;99.90;;;5.84;100.00;97378.31;5073555;28;20049;-67
2023/02/22 09:03:04;;;;;;;31.05;20.98;;;7.00;99.90;;;5.96;100.00;97384.88;5042179;28;20052;-67
2023/02/22 09:05:32;;;;;;;26.92;17.58;;;7.20;99.90;;;6.22;100.00;97380.72;5074201;28;20059;-67
2023/02/22 09:08:00;;;;;;;29.35;17.05;;;7.40;99.90;;;6.71;100.00;97371.56;5044158;28;20050;-67
2023/02/22 09:10:33;;;;;;;26.55;14.57;;;7.60;99.90;;;7.02;100.00;97371.44;5071715;28;20055;-67
2023/02/22 09:13:02;;;;;;;23.40;15.07;;;7.90;99.90;;;7.24;100.00;97360.44;5060796;28;20068;-67
2023/02/22 09:15:31;;;;;;;25.52;15.30;;;7.90;99.90;;;7.25;100.00;97362.97;5042673;28;20524;-67
2023/02/22 09:17:59;;;;;;;23.23;16.05;;;8.10;99.90;;;7.43;100.00;97364.09;5076082;28;20136;-67
2023/02/22 09:20:27;;;;;;;25.17;17.05;;;8.30;99.90;;;7.45;100.00;97359.72;5041168;28;20049;-67
2023/02/22 09:22:55;;;;;;;23.70;17.70;;;8.50;99.90;;;7.61;100.00;97364.38;5055689;28;20499;-67
2023/02/22 09:25:22;;;;;;;23.27;16.60;;;8.60;99.90;;;7.82;100.00;97357.59;5043894;28;20143;-67
2023/02/22 09:27:53;;;;;;;25.42;18.02;;;8.70;99.90;;;7.69;100.00;97347.72;5040740;28;20511;-67
2023/02/22 09:30:33;;;;;;;29.75;19.85;;;8.70;99.90;;;7.82;100.00;97360.19;5037101;28;20064;-67
2023/02/22 09:33:05;;;;;;;26.70;17.65;;;8.80;99.90;;;7.77;100.00;97368.09;5041840;28;20817;-67
2023/02/22 09:35:34;;;;;;;28.00;18.45;;;8.90;99.90;;;7.81;100.00;97361.94;5038959;28;20041;-67
2023/02/22 09:38:07;;;;;;;28.15;18.75;;;8.90;99.90;;;7.94;100.00;97354.63;5039699;28;20498;-67
2023/02/22 09:40:43;;;;;;;24.33;18.75;;;9.10;99.90;;;8.12;100.00;97347.94;5040012;28;20139;-67
2023/02/22 09:43:32;;;;;;;25.90;17.55;;;9.10;99.90;;;7.87;100.00;97356.56;5041134;28;20053;-67
2023/02/22 09:46:37;;;;;;;29.73;18.23;;;9.10;99.90;;;7.73;100.00;97359.63;5046123;28;20053;-67
2023/02/22 09:49:23;;;;;;;28.48;19.65;;;9.10;99.90;;;8.03;100.00;97353.41;5046670;28;20071;-67
2023/02/22 09:52:09;;;;;;;31.88;18.60;;;9.20;99.90;;;7.84;100.00;97343.72;5042963;28;20747;-66
2023/02/22 09:54:55;;;;;;;28.98;20.52;;;9.20;99.90;;;8.17;100.00;97349.44;5039514;28;20055;-67
2023/02/22 09:57:31;;;;;;;26.40;18.38;;;9.10;99.90;;;8.05;100.00;97349.91;5042898;28;20088;-67
2023/02/22 10:00:16;;;;;;;27.13;18.35;;;9.10;99.90;;;8.23;100.00;97357.88;5042956;28;20057;-67
2023/02/22 10:03:07;;;;;;;33.08;20.38;;;9.10;99.90;;;8.13;100.00;97365.97;5044364;28;21912;-66
2023/02/22 10:05:41;;;;;;;30.38;20.85;;;9.20;99.90;;;8.22;100.00;97348.44;5041443;28;20136;-67
2023/02/22 10:08:17;;;;;;;32.80;19.95;;;9.30;99.90;;;8.47;100.00;97348.41;5072209;28;20129;-66
2023/02/22 10:10:53;;;;;;;27.63;20.80;;;9.50;99.90;;;8.59;100.00;97345.34;5041017;28;20081;-67
2023/02/22 10:13:53;;;;;;;28.83;20.55;;;9.40;99.90;;;8.22;100.00;97351.03;5046012;28;21044;-67
2023/02/22 10:16:44;;;;;;;30.55;21.58;;;9.60;99.90;;;8.38;100.00;97350.38;5045690;28;20464;-66
2023/02/22 10:19:48;;;;;;;30.80;21.35;;;9.60;99.90;;;8.40;100.00;97347.78;5042590;28;20047;-66
2023/02/22 10:22:42;;;;;;;30.85;22.10;;;9.60;99.90;;;8.73;100.00;97331.84;5045269;28;20055;-66
2023/02/22 10:25:19;;;;;;;29.90;22.83;;;9.70;99.90;;;8.75;100.00;97333.47;5043001;28;20044;-67
2023/02/22 10:28:17;;;;;;;31.15;21.75;;;9.70;99.90;;;8.82;100.00;97344.44;5043231;28;20064;-67
2023/02/22 10:30:57;;;;;;;32.15;22.13;;;9.80;99.90;;;9.24;100.00;97332.41;5043619;28;20045;-67
2023/02/22 10:33:38;;;;;;;31.40;21.58;;;9.90;99.90;;;9.09;100.00;97329.56;5057714;28;20076;-67
2023/02/22 10:36:06;;;;;;;33.90;22.60;;;9.90;99.90;;;9.30;100.00;97327.81;5045977;28;20052;-67
2023/02/22 10:38:34;;;;;;;33.95;22.85;;;9.90;99.90;;;9.27;100.00;97325.38;5041807;28;20501;-67